Charles Darwin — GDLS — position and weather

sailwx.info

Track history (hours):
 
Tides and Currents Weather Stations Pressure Air Temp Water Temp Dewpoint Dewpoint Depression Visibility Wind Speed Wind Dir Waves Ship Positions

Oceanographic research ship Charles Darwin (UK)

Detailed information on ship capabilities available from University of Delaware's Ocean Information Center.

Last reported at 2019-Apr-25 05:40 UTC. Time now 2019-Apr-25 09:58 UTC.
Position N 50°60' E 001°25'.

Length 70 m; draft 5.7 m.

Type: Cargo ship. MMSI: 235011460.

Date/timePositionNaut miles runAvg speedWind from/ knotsBaromVisibWave heightAir tempDewpointWater temp
2019-Apr-25 05:40N 50°60' E 001°25'2 4.3
2019-Apr-25 05:13N 51°01' E 001°27'1 4.4
2019-Apr-25 05:00N 51°02' E 001°28'2 4.3
2019-Apr-25 04:31N 51°03' E 001°31'2 4.0
2019-Apr-25 04:00N 51°05' E 001°33'2 3.9
2019-Apr-25 03:31N 51°06' E 001°35'2 3.8
2019-Apr-25 03:01N 51°08' E 001°37'2 3.4
2019-Apr-25 02:31N 51°09' E 001°39'2 3.4
2019-Apr-25 02:01N 51°10' E 001°41'2 3.5
2019-Apr-25 01:30N 51°11' E 001°43'2 4.1
2019-Apr-25 01:01N 51°13' E 001°45'2 4.6
2019-Apr-25 00:31N 51°15' E 001°46'2 4.3
2019-Apr-25 00:01N 51°17' E 001°47'2 4.1
2019-Apr-24 23:31N 51°19' E 001°49'2 4.4
2019-Apr-24 23:01N 51°21' E 001°50'2 4.3
2019-Apr-24 22:31N 51°23' E 001°52'2 4.2
2019-Apr-24 22:01N 51°25' E 001°53'2 4.2
2019-Apr-24 21:31N 51°27' E 001°55'4 7.7
2019-Apr-24 21:01N 51°29' E 001°59'3 6.4
2019-Apr-24 20:31N 51°32' E 002°02'2 4.2
2019-Apr-24 20:00N 51°34' E 002°04'2 4.3
2019-Apr-24 19:31N 51°36' E 002°06'2 4.1
2019-Apr-24 19:01N 51°37' E 002°08'2 3.6
2019-Apr-24 18:31N 51°39' E 002°10'2 3.2
2019-Apr-24 18:00N 51°40' E 002°11'2 3.2
2019-Apr-24 17:31N 51°41' E 002°13'1 2.7
2019-Apr-24 17:01N 51°42' E 002°15'1 2.5
2019-Apr-24 16:26N 51°43' E 002°16'1 2.5
2019-Apr-24 15:58N 51°44' E 002°17'1 2.8
2019-Apr-24 15:26N 51°45' E 002°18'2 3.5
2019-Apr-24 14:53N 51°47' E 002°18'2 4.1
2019-Apr-24 14:27N 51°47' E 002°15'4 8.1
2019-Apr-24 13:58N 51°44' E 002°11'4 7.6
2019-Apr-24 13:29N 51°40' E 002°08'3 6.3
2019-Apr-24 13:00N 51°38' E 002°09'2 3.1
2019-Apr-24 12:31N 51°39' E 002°11'2 3.5
2019-Apr-24 12:00N 51°40' E 002°13'2 4.4
2019-Apr-24 11:30N 51°42' E 002°15'10 4.3
2019-Apr-24 09:09N 51°51' E 002°22'1 4.2
2019-Apr-24 09:00N 51°51' E 002°22'2 4.2
2019-Apr-24 08:30N 51°54' E 002°22'4 7.0
2019-Apr-24 08:00N 51°57' E 002°21'3 5.5
2019-Apr-24 07:30N 51°54' E 002°22'0 0.8
2019-Apr-24 06:58N 51°54' E 002°23'1 3.3
2019-Apr-24 06:30N 51°56' E 002°23'2 3.2
2019-Apr-24 06:00N 51°57' E 002°23'2 3.0
2019-Apr-24 05:19N 51°59' E 002°23'1 2.9
2019-Apr-24 04:59N 52°00' E 002°22'2 3.0
2019-Apr-24 04:27N 52°02' E 002°22'1 3.1
2019-Apr-24 04:00N 52°03' E 002°22'2 3.1
2019-Apr-24 03:30N 52°05' E 002°21'2 3.9
2019-Apr-24 03:00N 52°06' E 002°20'1 2.4
2019-Apr-24 02:30N 52°05' E 002°20'3 5.1
2019-Apr-24 02:01N 52°04' E 002°23'2 4.6
2019-Apr-24 01:30N 52°01' E 002°23'2 4.1
2019-Apr-24 01:00N 51°59' E 002°22'2 3.8
2019-Apr-24 00:30N 51°57' E 002°22'2 3.8
2019-Apr-24 00:01N 51°55' E 002°22'2 3.7
2019-Apr-23 23:30N 51°54' E 002°22'2 3.7
2019-Apr-23 23:00N 51°52' E 002°22'1 1.0
2019-Apr-23 22:30N 51°52' E 002°23'2 4.2
2019-Apr-23 21:56N 51°54' E 002°23'2 4.1
2019-Apr-23 21:28N 51°56' E 002°22'2 3.7
2019-Apr-23 21:00N 51°58' E 002°22'2 3.6
2019-Apr-23 20:30N 51°60' E 002°22'2 3.8
2019-Apr-23 20:00N 52°02' E 002°22'2 3.6
2019-Apr-23 19:30N 52°04' E 002°22'2 3.4
2019-Apr-23 19:00N 52°05' E 002°22'2 4.0
2019-Apr-23 18:31N 52°07' E 002°22'2 3.8
2019-Apr-23 18:00N 52°09' E 002°21'2 3.7
2019-Apr-23 17:31N 52°11' E 002°21'2 3.3
2019-Apr-23 17:00N 52°13' E 002°21'2 3.3
2019-Apr-23 16:30N 52°14' E 002°21'2 3.4
2019-Apr-23 16:01N 52°16' E 002°21'2 3.3
2019-Apr-23 15:30N 52°18' E 002°21'2 3.4
2019-Apr-23 15:01N 52°19' E 002°21'2 3.7
2019-Apr-23 14:31N 52°21' E 002°21'2 3.5
2019-Apr-23 14:01N 52°23' E 002°20'2 3.9
2019-Apr-23 13:31N 52°25' E 002°20'2 4.2
2019-Apr-23 13:00N 52°27' E 002°20'2 4.6
2019-Apr-23 12:30N 52°29' E 002°20'2 4.2
2019-Apr-23 12:00N 52°31' E 002°20'2 3.9
2019-Apr-23 11:31N 52°33' E 002°20'2 3.9
2019-Apr-23 11:00N 52°35' E 002°20'2 3.8
2019-Apr-23 10:30N 52°37' E 002°20'2 4.3
2019-Apr-23 10:00N 52°39' E 002°20'2 4.3
2019-Apr-23 09:31N 52°41' E 002°18'2 3.5
2019-Apr-23 09:00N 52°42' E 002°16'1 3.1
2019-Apr-23 08:30N 52°43' E 002°14'1 2.8
2019-Apr-23 08:00N 52°45' E 002°13'1 2.5
2019-Apr-23 07:30N 52°45' E 002°11'1 2.7
2019-Apr-23 07:01N 52°46' E 002°10'3 5.1
2019-Apr-23 06:30N 52°48' E 002°07'2 4.7
2019-Apr-23 06:00N 52°50' E 002°04'2 4.6
2019-Apr-23 05:31N 52°52' E 002°02'2 4.3
2019-Apr-23 05:01N 52°53' E 001°59'2 3.8
2019-Apr-23 04:31N 52°55' E 001°57'2 3.9
2019-Apr-23 04:00N 52°56' E 001°55'2 4.0
2019-Apr-23 03:31N 52°57' E 001°52'2 3.9
2019-Apr-23 03:00N 52°58' E 001°49'1 2.6
2019-Apr-23 02:30N 52°59' E 001°48'1 2.9
2019-Apr-23 02:00N 52°60' E 001°46'2 3.2
2019-Apr-23 01:30N 53°01' E 001°44'1 2.7
2019-Apr-23 01:00N 53°02' E 001°42'1 1.4
2019-Apr-23 00:31N 53°02' E 001°41'1 2.0
2019-Apr-23 00:01N 53°03' E 001°39'1 2.6
2019-Apr-22 23:30N 53°03' E 001°38'2 3.1
2019-Apr-22 23:01N 53°04' E 001°36'2 3.4
2019-Apr-22 22:30N 53°05' E 001°34'2 3.8
2019-Apr-22 22:00N 53°07' E 001°31'2 4.2
2019-Apr-22 21:30N 53°08' E 001°28'2 4.2
2019-Apr-22 21:00N 53°09' E 001°26'2 4.1
2019-Apr-22 20:28N 53°11' E 001°23'2 3.9
2019-Apr-22 20:00N 53°12' E 001°21'2 4.2
2019-Apr-22 19:31N 53°13' E 001°18'3 4.5
2019-Apr-22 18:50N 53°15' E 001°14'2 4.7
2019-Apr-22 18:30N 53°16' E 001°12'2 5.0
2019-Apr-22 18:00N 53°18' E 001°09'3 5.3
2019-Apr-22 17:31N 53°19' E 001°05'3 5.0
2019-Apr-22 17:00N 53°21' E 001°02'2 4.9
2019-Apr-22 16:31N 53°21' E 000°58'3 5.0
2019-Apr-22 15:58N 53°22' E 000°53'2 5.5
2019-Apr-22 15:31N 53°23' E 000°49'3 5.5
2019-Apr-22 15:00N 53°24' E 000°45'3 5.4
2019-Apr-22 14:30N 53°25' E 000°41'1 1.7
2019-Apr-22 14:00N 53°24' E 000°42'2 3.7
2019-Apr-22 13:31N 53°25' E 000°39'4 7.6
2019-Apr-22 13:00N 53°26' E 000°33'3 5.3
2019-Apr-22 12:30N 53°27' E 000°29'3 5.1
2019-Apr-22 12:00N 53°28' E 000°25'3 5.3
2019-Apr-22 11:30N 53°29' E 000°21'3 5.3
2019-Apr-22 11:00N 53°31' E 000°18'3 5.9
2019-Apr-22 10:29N 53°33' E 000°13'511.3
2019-Apr-22 10:00N 53°34' E 000°05'611.8
2019-Apr-22 09:30N 53°36' W 000°04'611.5
2019-Apr-22 09:00N 53°40' W 000°12'510.1
2019-Apr-22 08:31N 53°44' W 000°16'2 4.6
2019-Apr-22 07:59N 53°44' W 000°21'0 0.9
2019-Apr-22 07:29N 53°44' W 000°21'0 0.0
2019-Apr-22 06:59N 53°44' W 000°21'0 0.0
2019-Apr-22 06:29N 53°44' W 000°21'0 0.0
2019-Apr-22 05:59N 53°44' W 000°21'0 0.0
2019-Apr-22 05:29N 53°44' W 000°21'0 0.0
2019-Apr-22 04:59N 53°44' W 000°21'0 0.0
2019-Apr-22 04:29N 53°44' W 000°21'0 0.0
2019-Apr-22 03:59N 53°44' W 000°21'0 0.0
2019-Apr-22 03:29N 53°44' W 000°21'0 0.0
2019-Apr-22 02:59N 53°44' W 000°21'0 0.0
2019-Apr-22 02:29N 53°44' W 000°21'0 0.0
2019-Apr-22 01:59N 53°44' W 000°21'0 0.0
2019-Apr-22 01:29N 53°44' W 000°21'0 0.0
2019-Apr-22 00:59N 53°44' W 000°21'0 0.0
2019-Apr-22 00:29N 53°44' W 000°21'0 0.0
2019-Apr-21 23:59N 53°44' W 000°21'0 0.0
2019-Apr-21 23:29N 53°44' W 000°21'0 0.0
2019-Apr-21 22:59N 53°44' W 000°21'0 0.0
2019-Apr-21 22:29N 53°44' W 000°21'0 0.0
2019-Apr-21 21:59N 53°44' W 000°21'0 0.0
2019-Apr-21 21:29N 53°44' W 000°21'0 0.0
2019-Apr-21 20:59N 53°44' W 000°21'0 0.0
2019-Apr-21 20:29N 53°44' W 000°21'0 0.0
2019-Apr-21 19:59N 53°44' W 000°21'0 0.0
2019-Apr-21 19:29N 53°44' W 000°21'0 0.0
2019-Apr-21 18:59N 53°44' W 000°21'0 0.0
2019-Apr-21 18:29N 53°44' W 000°21'0 0.0
2019-Apr-21 17:59N 53°44' W 000°21'0 0.0
2019-Apr-21 17:29N 53°44' W 000°21'0 0.0
2019-Apr-21 16:59N 53°44' W 000°21'0 0.0
2019-Apr-21 16:29N 53°44' W 000°21'0 0.0
2019-Apr-21 15:56N 53°44' W 000°21'0 0.0
2019-Apr-21 15:29N 53°44' W 000°21'0 0.0
2019-Apr-21 14:59N 53°44' W 000°21'0 0.0
2019-Apr-21 14:29N 53°44' W 000°21'0 0.0
2019-Apr-21 13:59N 53°44' W 000°21'0 0.0
2019-Apr-21 13:29N 53°44' W 000°21'0 0.0
2019-Apr-21 12:59N 53°44' W 000°21'0 0.0
2019-Apr-21 12:29N 53°44' W 000°21'0 0.0
2019-Apr-21 11:59N 53°44' W 000°21'0 0.0
2019-Apr-21 11:29N 53°44' W 000°21'0 0.0
2019-Apr-21 10:59N 53°44' W 000°21'0 0.0
2019-Apr-21 10:29N 53°44' W 000°21'0 0.0
2019-Apr-21 09:59N 53°44' W 000°21'0 0.0
2019-Apr-21 09:29N 53°44' W 000°21'0 0.0
2019-Apr-21 08:59N 53°44' W 000°21'0 0.0
2019-Apr-21 08:29N 53°44' W 000°21'0 0.0
2019-Apr-21 07:59N 53°44' W 000°21'0 0.0
2019-Apr-21 07:29N 53°44' W 000°21'0 0.0
2019-Apr-21 06:59N 53°44' W 000°21'0 0.0
2019-Apr-21 06:29N 53°44' W 000°21'0 0.0
2019-Apr-21 05:59N 53°44' W 000°21'0 0.0
2019-Apr-21 05:29N 53°44' W 000°21'0 0.0
2019-Apr-21 04:59N 53°44' W 000°21'0 0.0
2019-Apr-21 04:29N 53°44' W 000°21'0 0.0
2019-Apr-21 03:59N 53°44' W 000°21'0 0.0
2019-Apr-21 03:29N 53°44' W 000°21'0 0.0
2019-Apr-21 02:59N 53°44' W 000°21'0 0.0
2019-Apr-21 02:29N 53°44' W 000°21'0 0.0
2019-Apr-21 01:59N 53°44' W 000°21'0 0.0
2019-Apr-21 01:29N 53°44' W 000°21'0 0.0
2019-Apr-21 00:59N 53°44' W 000°21'0 0.0
2019-Apr-21 00:29N 53°44' W 000°21'0 0.0
2019-Apr-20 23:59N 53°44' W 000°21'0 0.0
2019-Apr-20 23:29N 53°44' W 000°21'0 0.0
2019-Apr-20 22:59N 53°44' W 000°21'0 0.0
2019-Apr-20 22:29N 53°44' W 000°21'0 0.0
2019-Apr-20 21:59N 53°44' W 000°21'0 0.0
2019-Apr-20 21:29N 53°44' W 000°21'0 0.0
2019-Apr-20 20:59N 53°44' W 000°21'0 0.0
2019-Apr-20 20:29N 53°44' W 000°21'0 0.0
2019-Apr-20 19:59N 53°44' W 000°21'0 0.0
2019-Apr-20 19:29N 53°44' W 000°21'0 0.0
2019-Apr-20 18:59N 53°44' W 000°21'0 0.0
2019-Apr-20 18:29N 53°44' W 000°21'0 0.0
2019-Apr-20 17:59N 53°44' W 000°21'0 0.0
2019-Apr-20 17:29N 53°44' W 000°21'0 0.0
2019-Apr-20 16:59N 53°44' W 000°21'0 0.0
2019-Apr-20 16:29N 53°44' W 000°21'0 0.0
2019-Apr-20 15:59N 53°44' W 000°21'0 0.0
2019-Apr-20 15:29N 53°44' W 000°21'0 0.0
2019-Apr-20 14:59N 53°44' W 000°21'0 0.0
2019-Apr-20 14:29N 53°44' W 000°21'0 0.0
2019-Apr-20 13:59N 53°44' W 000°21'0 0.0
2019-Apr-20 13:29N 53°44' W 000°21'0 0.0
2019-Apr-20 12:59N 53°44' W 000°21'0 0.0
2019-Apr-20 12:29N 53°44' W 000°21'0 0.0
2019-Apr-20 11:59N 53°44' W 000°21'0 0.0
2019-Apr-20 11:29N 53°44' W 000°21'0 0.0
2019-Apr-20 10:59N 53°44' W 000°21'0 0.0
2019-Apr-20 10:29N 53°44' W 000°21'0 0.0
2019-Apr-20 09:59N 53°44' W 000°21'0 0.3
2019-Apr-20 09:29N 53°44' W 000°21'0 0.0
2019-Apr-20 08:59N 53°44' W 000°21'0 0.0
2019-Apr-20 08:29N 53°44' W 000°21'0 0.0
2019-Apr-20 07:59N 53°44' W 000°21'0 0.0
2019-Apr-20 07:29N 53°44' W 000°21'0 0.0
2019-Apr-20 06:59N 53°44' W 000°21'0 0.0
2019-Apr-20 06:29N 53°44' W 000°21'0 0.0
2019-Apr-20 05:56N 53°44' W 000°21'0 0.0
2019-Apr-20 05:29N 53°44' W 000°21'0 0.0
2019-Apr-20 04:58N 53°44' W 000°21'0 0.0
2019-Apr-20 04:29N 53°44' W 000°21'0 0.0
2019-Apr-20 03:59N 53°44' W 000°21'0 0.0
2019-Apr-20 03:29N 53°44' W 000°21'0 0.0
2019-Apr-20 02:58N 53°44' W 000°21'0 0.0
2019-Apr-20 02:29N 53°44' W 000°21'0 0.0
2019-Apr-20 01:59N 53°44' W 000°21'0 0.0
2019-Apr-20 01:29N 53°44' W 000°21'0 0.0
2019-Apr-20 00:59N 53°44' W 000°21'0 0.0
2019-Apr-20 00:29N 53°44' W 000°21'0 0.0
2019-Apr-19 23:59N 53°44' W 000°21'0 0.0
2019-Apr-19 23:29N 53°44' W 000°21'0 0.0
2019-Apr-19 22:59N 53°44' W 000°21'0 0.0
2019-Apr-19 22:29N 53°44' W 000°21'0 0.0
2019-Apr-19 21:59N 53°44' W 000°21'0 0.0
2019-Apr-19 21:29N 53°44' W 000°21'0 0.0
2019-Apr-19 20:58N 53°44' W 000°21'0 0.0
2019-Apr-19 20:29N 53°44' W 000°21'0 0.0
2019-Apr-19 19:59N 53°44' W 000°21'0 0.0
2019-Apr-19 19:26N 53°44' W 000°21'0 0.0
2019-Apr-19 18:58N 53°44' W 000°21'0 0.0
2019-Apr-19 18:29N 53°44' W 000°21'0 0.0
2019-Apr-19 17:59N 53°44' W 000°21'0 0.0
2019-Apr-19 17:28N 53°44' W 000°21'0 0.0
2019-Apr-19 16:59N 53°44' W 000°21'0 0.0
2019-Apr-19 16:29N 53°44' W 000°21'0 0.0
2019-Apr-19 15:58N 53°44' W 000°21'0 0.0
2019-Apr-19 15:29N 53°44' W 000°21'0 0.0
2019-Apr-19 14:59N 53°44' W 000°21'0 0.0
2019-Apr-19 14:28N 53°44' W 000°21'0 0.0
2019-Apr-19 13:58N 53°44' W 000°21'0 0.0
2019-Apr-19 13:28N 53°44' W 000°21'0 0.0
2019-Apr-19 12:59N 53°44' W 000°21'0 0.0
2019-Apr-19 12:28N 53°44' W 000°21'0 0.0
2019-Apr-19 11:59N 53°44' W 000°21'0 0.0
2019-Apr-19 11:28N 53°44' W 000°21'0 0.0
2019-Apr-19 10:58N 53°44' W 000°21'0 0.0
2019-Apr-19 10:28N 53°44' W 000°21'0 0.0
2019-Apr-19 09:58N 53°44' W 000°21'0 0.0
2019-Apr-19 09:28N 53°44' W 000°21'0 0.0
2019-Apr-19 08:58N 53°44' W 000°21'0 0.0
2019-Apr-19 08:29N 53°44' W 000°21'0 0.0
2019-Apr-19 07:59N 53°44' W 000°21'0 0.0
2019-Apr-19 07:28N 53°44' W 000°21'0 0.0
2019-Apr-19 06:59N 53°44' W 000°21'0 0.0
2019-Apr-19 06:29N 53°44' W 000°21'0 0.0
2019-Apr-19 05:58N 53°44' W 000°21'0 0.0
2019-Apr-19 05:28N 53°44' W 000°21'0 0.0
2019-Apr-19 04:58N 53°44' W 000°21'0 0.0
2019-Apr-19 04:28N 53°44' W 000°21'0 0.0
2019-Apr-19 03:58N 53°44' W 000°21'0 0.0
2019-Apr-19 03:28N 53°44' W 000°21'0 0.0
2019-Apr-19 02:58N 53°44' W 000°21'0 0.0
2019-Apr-19 02:28N 53°44' W 000°21'0 0.0
2019-Apr-19 01:58N 53°44' W 000°21'0 0.0
2019-Apr-19 01:28N 53°44' W 000°21'0 0.0
2019-Apr-19 00:58N 53°44' W 000°21'0 0.0
2019-Apr-19 00:28N 53°44' W 000°21'0 0.0
2019-Apr-18 23:58N 53°44' W 000°21'0 0.0
2019-Apr-18 23:28N 53°44' W 000°21'0 0.0
2019-Apr-18 22:58N 53°44' W 000°21'0 0.0
2019-Apr-18 22:28N 53°44' W 000°21'0 0.0
2019-Apr-18 21:58N 53°44' W 000°21'0 0.0
2019-Apr-18 21:28N 53°44' W 000°21'0 0.0
2019-Apr-18 20:58N 53°44' W 000°21'0 0.0
2019-Apr-18 20:28N 53°44' W 000°21'0 0.0
2019-Apr-18 19:58N 53°44' W 000°21'0 0.0
2019-Apr-18 19:28N 53°44' W 000°21'0 0.0
2019-Apr-18 18:55N 53°44' W 000°21'0 0.0
2019-Apr-18 18:28N 53°44' W 000°21'0 0.0
2019-Apr-18 17:58N 53°44' W 000°21'0 0.0
2019-Apr-18 17:28N 53°44' W 000°21'0 0.0
2019-Apr-18 16:55N 53°44' W 000°21'0 0.0
2019-Apr-18 16:28N 53°44' W 000°21'0 0.0
2019-Apr-18 15:58N 53°44' W 000°21'0 0.0
2019-Apr-18 15:28N 53°44' W 000°21'0 0.0
2019-Apr-18 14:58N 53°44' W 000°21'0 0.0
2019-Apr-18 14:28N 53°44' W 000°21'0 0.0
2019-Apr-18 13:58N 53°44' W 000°21'0 0.0
2019-Apr-18 13:28N 53°44' W 000°21'0 0.0
2019-Apr-18 12:58N 53°44' W 000°21'0 0.0
2019-Apr-18 12:28N 53°44' W 000°21'0 0.0
2019-Apr-18 11:58N 53°44' W 000°21'0 0.0
2019-Apr-18 11:28N 53°44' W 000°21'0 0.0
2019-Apr-18 10:58N 53°44' W 000°21'0 0.0
2019-Apr-18 10:28N 53°44' W 000°21'0 0.0
2019-Apr-18 09:58N 53°44' W 000°21'0 0.0
2019-Apr-18 09:28N 53°44' W 000°21'0 0.0
2019-Apr-18 08:58N 53°44' W 000°21'0 0.0
2019-Apr-18 08:28N 53°44' W 000°21'0 0.0
2019-Apr-18 07:58N 53°44' W 000°21'0 0.0
2019-Apr-18 07:28N 53°44' W 000°21'0 0.0
2019-Apr-18 06:58N 53°44' W 000°21'0 0.0
2019-Apr-18 06:28N 53°44' W 000°21'0 0.0
2019-Apr-18 05:58N 53°44' W 000°21'0 0.0
2019-Apr-18 05:28N 53°44' W 000°21'0 0.0
2019-Apr-18 04:58N 53°44' W 000°21'0 0.0
2019-Apr-18 04:28N 53°44' W 000°21'0 0.0
2019-Apr-18 03:58N 53°44' W 000°21'0 0.0
2019-Apr-18 03:28N 53°44' W 000°21'0 0.0
2019-Apr-18 02:58N 53°44' W 000°21'0 0.0
2019-Apr-18 02:28N 53°44' W 000°21'0 0.0
2019-Apr-18 01:58N 53°44' W 000°21'0 0.0
2019-Apr-18 01:28N 53°44' W 000°21'0 0.0
2019-Apr-18 00:58N 53°44' W 000°21'0 0.0
2019-Apr-18 00:28N 53°44' W 000°21'0 0.0
2019-Apr-17 23:58N 53°44' W 000°21'0 0.0
2019-Apr-17 23:28N 53°44' W 000°21'0 0.0
2019-Apr-17 22:58N 53°44' W 000°21'0 0.0
2019-Apr-17 22:28N 53°44' W 000°21'0 0.0
2019-Apr-17 21:58N 53°44' W 000°21'0 0.0
2019-Apr-17 21:28N 53°44' W 000°21'0 0.0
2019-Apr-17 20:58N 53°44' W 000°21'0 0.0
2019-Apr-17 20:28N 53°44' W 000°21'0 0.0
2019-Apr-17 19:58N 53°44' W 000°21'0 0.0
2019-Apr-17 19:28N 53°44' W 000°21'0 0.0
2019-Apr-17 18:55N 53°44' W 000°21'0 0.0
2019-Apr-17 18:28N 53°44' W 000°21'0 0.0
2019-Apr-17 17:58N 53°44' W 000°21'0 0.0
2019-Apr-17 17:28N 53°44' W 000°21'0 0.0
2019-Apr-17 16:58N 53°44' W 000°21'0 0.0
2019-Apr-17 16:28N 53°44' W 000°21'0 0.0
2019-Apr-17 15:58N 53°44' W 000°21'0 0.0
2019-Apr-17 15:28N 53°44' W 000°21'0 0.0
2019-Apr-17 14:58N 53°44' W 000°21'0 0.0
2019-Apr-17 14:28N 53°44' W 000°21'0 0.0
2019-Apr-17 13:58N 53°44' W 000°21'0 0.0
2019-Apr-17 13:28N 53°44' W 000°21'0 0.0
2019-Apr-17 12:58N 53°44' W 000°21'0 0.0
2019-Apr-17 12:28N 53°44' W 000°21'0 0.0
2019-Apr-17 11:58N 53°44' W 000°21'0 0.0
2019-Apr-17 11:28N 53°44' W 000°21'0 0.0
2019-Apr-17 10:58N 53°44' W 000°21'0 0.0
2019-Apr-17 10:28N 53°44' W 000°21'0 0.0
2019-Apr-17 09:58N 53°44' W 000°21'0 0.0
2019-Apr-17 09:28N 53°44' W 000°21'0 0.0
2019-Apr-17 08:58N 53°44' W 000°21'0 0.0
2019-Apr-17 08:28N 53°44' W 000°21'0 0.0
2019-Apr-17 07:58N 53°44' W 000°21'0 0.0
2019-Apr-17 07:28N 53°44' W 000°21'0 0.0
2019-Apr-17 06:58N 53°44' W 000°21'0 0.0
2019-Apr-17 06:28N 53°44' W 000°21'0 0.0
2019-Apr-17 05:55N 53°44' W 000°21'0 0.0
2019-Apr-17 05:28N 53°44' W 000°21'0 0.0
2019-Apr-17 04:58N 53°44' W 000°21'0 0.0
2019-Apr-17 04:28N 53°44' W 000°21'0 0.0
2019-Apr-17 03:58N 53°44' W 000°21'0 0.0
2019-Apr-17 03:28N 53°44' W 000°21'0 0.0
2019-Apr-17 02:58N 53°44' W 000°21'0 0.0
2019-Apr-17 02:28N 53°44' W 000°21'0 0.0
2019-Apr-17 01:58N 53°44' W 000°21'0 0.0
2019-Apr-17 01:28N 53°44' W 000°21'0 0.0
2019-Apr-17 00:58N 53°44' W 000°21'0 0.0
2019-Apr-17 00:28N 53°44' W 000°21'0 0.0
2019-Apr-16 23:58N 53°44' W 000°21'0 0.0
2019-Apr-16 23:28N 53°44' W 000°21'0 0.0
2019-Apr-16 22:58N 53°44' W 000°21'0 0.0
2019-Apr-16 22:28N 53°44' W 000°21'0 0.0
2019-Apr-16 21:58N 53°44' W 000°21'0 0.0
2019-Apr-16 21:28N 53°44' W 000°21'0 0.0
2019-Apr-16 20:58N 53°44' W 000°21'0 0.0
2019-Apr-16 20:28N 53°44' W 000°21'0 0.0
2019-Apr-16 19:58N 53°44' W 000°21'0 0.0
2019-Apr-16 19:28N 53°44' W 000°21'0 0.0
2019-Apr-16 18:58N 53°44' W 000°21'0 0.0
2019-Apr-16 18:28N 53°44' W 000°21'0 0.0
2019-Apr-16 17:58N 53°44' W 000°21'0 0.0
2019-Apr-16 17:28N 53°44' W 000°21'0 0.0
2019-Apr-16 16:58N 53°44' W 000°21'0 0.0
2019-Apr-16 16:28N 53°44' W 000°21'0 0.0
2019-Apr-16 15:58N 53°44' W 000°21'0 0.0
2019-Apr-16 15:28N 53°44' W 000°21'0 0.0
2019-Apr-16 14:58N 53°44' W 000°21'0 0.0
2019-Apr-16 14:28N 53°44' W 000°21'0 0.0
2019-Apr-16 13:58N 53°44' W 000°21'0 0.0
2019-Apr-16 13:28N 53°44' W 000°21'0 0.0
2019-Apr-16 12:58N 53°44' W 000°21'0 0.0
2019-Apr-16 12:28N 53°44' W 000°21'0 0.0
2019-Apr-16 11:58N 53°44' W 000°21'0 0.0
2019-Apr-16 11:28N 53°44' W 000°21'0 0.0
2019-Apr-16 10:58N 53°44' W 000°21'0 0.0
2019-Apr-16 10:28N 53°44' W 000°21'0 0.0
2019-Apr-16 09:55N 53°44' W 000°21'0 0.0
2019-Apr-16 09:28N 53°44' W 000°21'0 0.0
2019-Apr-16 08:58N 53°44' W 000°21'0 0.0
2019-Apr-16 08:28N 53°44' W 000°21'0 0.0
2019-Apr-16 07:58N 53°44' W 000°21'0 0.0
2019-Apr-16 07:28N 53°44' W 000°21'0 0.0
2019-Apr-16 06:58N 53°44' W 000°21'0 0.0
2019-Apr-16 06:28N 53°44' W 000°21'0 0.0
2019-Apr-16 05:58N 53°44' W 000°21'0 0.0
2019-Apr-16 05:28N 53°44' W 000°21'0 0.0
2019-Apr-16 04:58N 53°44' W 000°21'0 0.0
2019-Apr-16 04:28N 53°44' W 000°21'0 0.0
2019-Apr-16 03:58N 53°44' W 000°21'0 0.0
2019-Apr-16 03:28N 53°44' W 000°21'0 0.0
2019-Apr-16 02:58N 53°44' W 000°21'0 0.0
2019-Apr-16 02:28N 53°44' W 000°21'0 0.0
2019-Apr-16 01:58N 53°44' W 000°21'0 0.0
2019-Apr-16 01:28N 53°44' W 000°21'0 0.0
2019-Apr-16 00:58N 53°44' W 000°21'0 0.0
2019-Apr-16 00:28N 53°44' W 000°21'0 0.0
2019-Apr-15 23:58N 53°44' W 000°21'0 0.0
2019-Apr-15 23:28N 53°44' W 000°21'0 0.0
2019-Apr-15 22:55N 53°44' W 000°21'0 0.0
2019-Apr-15 22:28N 53°44' W 000°21'0 0.0
2019-Apr-15 21:58N 53°44' W 000°21'0 0.0
2019-Apr-15 21:28N 53°44' W 000°21'0 0.0
2019-Apr-15 20:55N 53°44' W 000°21'0 0.0
2019-Apr-15 20:28N 53°44' W 000°21'0 0.0
2019-Apr-15 19:58N 53°44' W 000°21'0 0.0
2019-Apr-15 19:28N 53°44' W 000°21'0 0.0
2019-Apr-15 18:58N 53°44' W 000°21'0 0.0
2019-Apr-15 18:28N 53°44' W 000°21'0 0.0
2019-Apr-15 17:58N 53°44' W 000°21'0 0.0
2019-Apr-15 17:28N 53°44' W 000°21'0 0.0
2019-Apr-15 16:58N 53°44' W 000°21'0 0.0
2019-Apr-15 16:28N 53°44' W 000°21'0 0.0
2019-Apr-15 15:58N 53°44' W 000°21'0 0.0
2019-Apr-15 15:28N 53°44' W 000°21'0 0.0
2019-Apr-15 14:58N 53°44' W 000°21'0 0.0
2019-Apr-15 14:28N 53°44' W 000°21'0 0.0
2019-Apr-15 13:58N 53°44' W 000°21'0 0.0
2019-Apr-15 13:28N 53°44' W 000°21'0 0.0
2019-Apr-15 12:58N 53°44' W 000°21'0 0.0
2019-Apr-15 12:28N 53°44' W 000°21'0 0.0
2019-Apr-15 11:58N 53°44' W 000°21'0 0.0
2019-Apr-15 11:28N 53°44' W 000°21'0 0.0
2019-Apr-15 10:58N 53°44' W 000°21'0 0.0
2019-Apr-15 10:28N 53°44' W 000°21'0 0.0
2019-Apr-15 09:58N 53°44' W 000°21'0 0.0
2019-Apr-15 09:28N 53°44' W 000°21'0 0.0
2019-Apr-15 08:58N 53°44' W 000°21'0 0.0
2019-Apr-15 08:28N 53°44' W 000°21'0 0.0
2019-Apr-15 07:58N 53°44' W 000°21'0 0.0
2019-Apr-15 07:28N 53°44' W 000°21'0 0.0
2019-Apr-15 06:58N 53°44' W 000°21'0 0.0
2019-Apr-15 06:25N 53°44' W 000°21'0 0.0
2019-Apr-15 05:58N 53°44' W 000°21'  
Track history (hours):
 
Tides and Currents Weather Stations Pressure Air Temp Water Temp Dewpoint Dewpoint Depression Visibility Wind Speed Wind Dir Waves Ship Positions

Oceanographic research ship Charles Darwin (UK)

Detailed information on ship capabilities available from University of Delaware's Ocean Information Center.

Last reported at 2019-Apr-25 05:40 UTC. Time now 2019-Apr-25 09:58 UTC.
Position N 50°60' E 001°25'.

Length 70 m; draft 5.7 m.

Type: Cargo ship. MMSI: 235011460.

Date/timePositionNaut miles runAvg speedWind from/ knotsBaromVisibWave heightAir tempDewpointWater temp
2019-Apr-25 05:40N 50°60' E 001°25'2 4.3
2019-Apr-25 05:13N 51°01' E 001°27'1 4.4
2019-Apr-25 05:00N 51°02' E 001°28'2 4.3
2019-Apr-25 04:31N 51°03' E 001°31'2 4.0
2019-Apr-25 04:00N 51°05' E 001°33'2 3.9
2019-Apr-25 03:31N 51°06' E 001°35'2 3.8
2019-Apr-25 03:01N 51°08' E 001°37'2 3.4
2019-Apr-25 02:31N 51°09' E 001°39'2 3.4
2019-Apr-25 02:01N 51°10' E 001°41'2 3.5
2019-Apr-25 01:30N 51°11' E 001°43'2 4.1
2019-Apr-25 01:01N 51°13' E 001°45'2 4.6
2019-Apr-25 00:31N 51°15' E 001°46'2 4.3
2019-Apr-25 00:01N 51°17' E 001°47'2 4.1
2019-Apr-24 23:31N 51°19' E 001°49'2 4.4
2019-Apr-24 23:01N 51°21' E 001°50'2 4.3
2019-Apr-24 22:31N 51°23' E 001°52'2 4.2
2019-Apr-24 22:01N 51°25' E 001°53'2 4.2
2019-Apr-24 21:31N 51°27' E 001°55'4 7.7
2019-Apr-24 21:01N 51°29' E 001°59'3 6.4
2019-Apr-24 20:31N 51°32' E 002°02'2 4.2
2019-Apr-24 20:00N 51°34' E 002°04'2 4.3
2019-Apr-24 19:31N 51°36' E 002°06'2 4.1
2019-Apr-24 19:01N 51°37' E 002°08'2 3.6
2019-Apr-24 18:31N 51°39' E 002°10'2 3.2
2019-Apr-24 18:00N 51°40' E 002°11'2 3.2
2019-Apr-24 17:31N 51°41' E 002°13'1 2.7
2019-Apr-24 17:01N 51°42' E 002°15'1 2.5
2019-Apr-24 16:26N 51°43' E 002°16'1 2.5
2019-Apr-24 15:58N 51°44' E 002°17'1 2.8
2019-Apr-24 15:26N 51°45' E 002°18'2 3.5
2019-Apr-24 14:53N 51°47' E 002°18'2 4.1
2019-Apr-24 14:27N 51°47' E 002°15'4 8.1
2019-Apr-24 13:58N 51°44' E 002°11'4 7.6
2019-Apr-24 13:29N 51°40' E 002°08'3 6.3
2019-Apr-24 13:00N 51°38' E 002°09'2 3.1
2019-Apr-24 12:31N 51°39' E 002°11'2 3.5
2019-Apr-24 12:00N 51°40' E 002°13'2 4.4
2019-Apr-24 11:30N 51°42' E 002°15'10 4.3
2019-Apr-24 09:09N 51°51' E 002°22'1 4.2
2019-Apr-24 09:00N 51°51' E 002°22'2 4.2
2019-Apr-24 08:30N 51°54' E 002°22'4 7.0
2019-Apr-24 08:00N 51°57' E 002°21'3 5.5
2019-Apr-24 07:30N 51°54' E 002°22'0 0.8
2019-Apr-24 06:58N 51°54' E 002°23'1 3.3
2019-Apr-24 06:30N 51°56' E 002°23'2 3.2
2019-Apr-24 06:00N 51°57' E 002°23'2 3.0
2019-Apr-24 05:19N 51°59' E 002°23'1 2.9
2019-Apr-24 04:59N 52°00' E 002°22'2 3.0
2019-Apr-24 04:27N 52°02' E 002°22'1 3.1
2019-Apr-24 04:00N 52°03' E 002°22'2 3.1
2019-Apr-24 03:30N 52°05' E 002°21'2 3.9
2019-Apr-24 03:00N 52°06' E 002°20'1 2.4
2019-Apr-24 02:30N 52°05' E 002°20'3 5.1
2019-Apr-24 02:01N 52°04' E 002°23'2 4.6
2019-Apr-24 01:30N 52°01' E 002°23'2 4.1
2019-Apr-24 01:00N 51°59' E 002°22'2 3.8
2019-Apr-24 00:30N 51°57' E 002°22'2 3.8
2019-Apr-24 00:01N 51°55' E 002°22'2 3.7
2019-Apr-23 23:30N 51°54' E 002°22'2 3.7
2019-Apr-23 23:00N 51°52' E 002°22'1 1.0
2019-Apr-23 22:30N 51°52' E 002°23'2 4.2
2019-Apr-23 21:56N 51°54' E 002°23'2 4.1
2019-Apr-23 21:28N 51°56' E 002°22'2 3.7
2019-Apr-23 21:00N 51°58' E 002°22'2 3.6
2019-Apr-23 20:30N 51°60' E 002°22'2 3.8
2019-Apr-23 20:00N 52°02' E 002°22'2 3.6
2019-Apr-23 19:30N 52°04' E 002°22'2 3.4
2019-Apr-23 19:00N 52°05' E 002°22'2 4.0
2019-Apr-23 18:31N 52°07' E 002°22'2 3.8
2019-Apr-23 18:00N 52°09' E 002°21'2 3.7
2019-Apr-23 17:31N 52°11' E 002°21'2 3.3
2019-Apr-23 17:00N 52°13' E 002°21'2 3.3
2019-Apr-23 16:30N 52°14' E 002°21'2 3.4
2019-Apr-23 16:01N 52°16' E 002°21'2 3.3
2019-Apr-23 15:30N 52°18' E 002°21'2 3.4
2019-Apr-23 15:01N 52°19' E 002°21'2 3.7
2019-Apr-23 14:31N 52°21' E 002°21'2 3.5
2019-Apr-23 14:01N 52°23' E 002°20'2 3.9
2019-Apr-23 13:31N 52°25' E 002°20'2 4.2
2019-Apr-23 13:00N 52°27' E 002°20'2 4.6
2019-Apr-23 12:30N 52°29' E 002°20'2 4.2
2019-Apr-23 12:00N 52°31' E 002°20'2 3.9
2019-Apr-23 11:31N 52°33' E 002°20'2 3.9
2019-Apr-23 11:00N 52°35' E 002°20'2 3.8
2019-Apr-23 10:30N 52°37' E 002°20'2 4.3
2019-Apr-23 10:00N 52°39' E 002°20'2 4.3
2019-Apr-23 09:31N 52°41' E 002°18'2 3.5
2019-Apr-23 09:00N 52°42' E 002°16'1 3.1
2019-Apr-23 08:30N 52°43' E 002°14'1 2.8
2019-Apr-23 08:00N 52°45' E 002°13'1 2.5
2019-Apr-23 07:30N 52°45' E 002°11'1 2.7
2019-Apr-23 07:01N 52°46' E 002°10'3 5.1
2019-Apr-23 06:30N 52°48' E 002°07'2 4.7
2019-Apr-23 06:00N 52°50' E 002°04'2 4.6
2019-Apr-23 05:31N 52°52' E 002°02'2 4.3
2019-Apr-23 05:01N 52°53' E 001°59'2 3.8
2019-Apr-23 04:31N 52°55' E 001°57'2 3.9
2019-Apr-23 04:00N 52°56' E 001°55'2 4.0
2019-Apr-23 03:31N 52°57' E 001°52'2 3.9
2019-Apr-23 03:00N 52°58' E 001°49'1 2.6
2019-Apr-23 02:30N 52°59' E 001°48'1 2.9
2019-Apr-23 02:00N 52°60' E 001°46'2 3.2
2019-Apr-23 01:30N 53°01' E 001°44'1 2.7
2019-Apr-23 01:00N 53°02' E 001°42'1 1.4
2019-Apr-23 00:31N 53°02' E 001°41'1 2.0
2019-Apr-23 00:01N 53°03' E 001°39'1 2.6
2019-Apr-22 23:30N 53°03' E 001°38'2 3.1
2019-Apr-22 23:01N 53°04' E 001°36'2 3.4
2019-Apr-22 22:30N 53°05' E 001°34'2 3.8
2019-Apr-22 22:00N 53°07' E 001°31'2 4.2
2019-Apr-22 21:30N 53°08' E 001°28'2 4.2
2019-Apr-22 21:00N 53°09' E 001°26'2 4.1
2019-Apr-22 20:28N 53°11' E 001°23'2 3.9
2019-Apr-22 20:00N 53°12' E 001°21'2 4.2
2019-Apr-22 19:31N 53°13' E 001°18'3 4.5
2019-Apr-22 18:50N 53°15' E 001°14'2 4.7
2019-Apr-22 18:30N 53°16' E 001°12'2 5.0
2019-Apr-22 18:00N 53°18' E 001°09'3 5.3
2019-Apr-22 17:31N 53°19' E 001°05'3 5.0
2019-Apr-22 17:00N 53°21' E 001°02'2 4.9
2019-Apr-22 16:31N 53°21' E 000°58'3 5.0
2019-Apr-22 15:58N 53°22' E 000°53'2 5.5
2019-Apr-22 15:31N 53°23' E 000°49'3 5.5
2019-Apr-22 15:00N 53°24' E 000°45'3 5.4
2019-Apr-22 14:30N 53°25' E 000°41'1 1.7
2019-Apr-22 14:00N 53°24' E 000°42'2 3.7
2019-Apr-22 13:31N 53°25' E 000°39'4 7.6
2019-Apr-22 13:00N 53°26' E 000°33'3 5.3
2019-Apr-22 12:30N 53°27' E 000°29'3 5.1
2019-Apr-22 12:00N 53°28' E 000°25'3 5.3
2019-Apr-22 11:30N 53°29' E 000°21'3 5.3
2019-Apr-22 11:00N 53°31' E 000°18'3 5.9
2019-Apr-22 10:29N 53°33' E 000°13'511.3
2019-Apr-22 10:00N 53°34' E 000°05'611.8
2019-Apr-22 09:30N 53°36' W 000°04'611.5
2019-Apr-22 09:00N 53°40' W 000°12'510.1
2019-Apr-22 08:31N 53°44' W 000°16'2 4.6
2019-Apr-22 07:59N 53°44' W 000°21'0 0.9
2019-Apr-22 07:29N 53°44' W 000°21'0 0.0
2019-Apr-22 06:59N 53°44' W 000°21'0 0.0
2019-Apr-22 06:29N 53°44' W 000°21'0 0.0
2019-Apr-22 05:59N 53°44' W 000°21'0 0.0
2019-Apr-22 05:29N 53°44' W 000°21'0 0.0
2019-Apr-22 04:59N 53°44' W 000°21'0 0.0
2019-Apr-22 04:29N 53°44' W 000°21'0 0.0
2019-Apr-22 03:59N 53°44' W 000°21'0 0.0
2019-Apr-22 03:29N 53°44' W 000°21'0 0.0
2019-Apr-22 02:59N 53°44' W 000°21'0 0.0
2019-Apr-22 02:29N 53°44' W 000°21'0 0.0
2019-Apr-22 01:59N 53°44' W 000°21'0 0.0
2019-Apr-22 01:29N 53°44' W 000°21'0 0.0
2019-Apr-22 00:59N 53°44' W 000°21'0 0.0
2019-Apr-22 00:29N 53°44' W 000°21'0 0.0
2019-Apr-21 23:59N 53°44' W 000°21'0 0.0
2019-Apr-21 23:29N 53°44' W 000°21'0 0.0
2019-Apr-21 22:59N 53°44' W 000°21'0 0.0
2019-Apr-21 22:29N 53°44' W 000°21'0 0.0
2019-Apr-21 21:59N 53°44' W 000°21'0 0.0
2019-Apr-21 21:29N 53°44' W 000°21'0 0.0
2019-Apr-21 20:59N 53°44' W 000°21'0 0.0
2019-Apr-21 20:29N 53°44' W 000°21'0 0.0
2019-Apr-21 19:59N 53°44' W 000°21'0 0.0
2019-Apr-21 19:29N 53°44' W 000°21'0 0.0
2019-Apr-21 18:59N 53°44' W 000°21'0 0.0
2019-Apr-21 18:29N 53°44' W 000°21'0 0.0
2019-Apr-21 17:59N 53°44' W 000°21'0 0.0
2019-Apr-21 17:29N 53°44' W 000°21'0 0.0
2019-Apr-21 16:59N 53°44' W 000°21'0 0.0
2019-Apr-21 16:29N 53°44' W 000°21'0 0.0
2019-Apr-21 15:56N 53°44' W 000°21'0 0.0
2019-Apr-21 15:29N 53°44' W 000°21'0 0.0
2019-Apr-21 14:59N 53°44' W 000°21'0 0.0
2019-Apr-21 14:29N 53°44' W 000°21'0 0.0
2019-Apr-21 13:59N 53°44' W 000°21'0 0.0
2019-Apr-21 13:29N 53°44' W 000°21'0 0.0
2019-Apr-21 12:59N 53°44' W 000°21'0 0.0
2019-Apr-21 12:29N 53°44' W 000°21'0 0.0
2019-Apr-21 11:59N 53°44' W 000°21'0 0.0
2019-Apr-21 11:29N 53°44' W 000°21'0 0.0
2019-Apr-21 10:59N 53°44' W 000°21'0 0.0
2019-Apr-21 10:29N 53°44' W 000°21'0 0.0
2019-Apr-21 09:59N 53°44' W 000°21'0 0.0
2019-Apr-21 09:29N 53°44' W 000°21'0 0.0
2019-Apr-21 08:59N 53°44' W 000°21'0 0.0
2019-Apr-21 08:29N 53°44' W 000°21'0 0.0
2019-Apr-21 07:59N 53°44' W 000°21'0 0.0
2019-Apr-21 07:29N 53°44' W 000°21'0 0.0
2019-Apr-21 06:59N 53°44' W 000°21'0 0.0
2019-Apr-21 06:29N 53°44' W 000°21'0 0.0
2019-Apr-21 05:59N 53°44' W 000°21'0 0.0
2019-Apr-21 05:29N 53°44' W 000°21'0 0.0
2019-Apr-21 04:59N 53°44' W 000°21'0 0.0
2019-Apr-21 04:29N 53°44' W 000°21'0 0.0
2019-Apr-21 03:59N 53°44' W 000°21'0 0.0
2019-Apr-21 03:29N 53°44' W 000°21'0 0.0
2019-Apr-21 02:59N 53°44' W 000°21'0 0.0
2019-Apr-21 02:29N 53°44' W 000°21'0 0.0
2019-Apr-21 01:59N 53°44' W 000°21'0 0.0
2019-Apr-21 01:29N 53°44' W 000°21'0 0.0
2019-Apr-21 00:59N 53°44' W 000°21'0 0.0
2019-Apr-21 00:29N 53°44' W 000°21'0 0.0
2019-Apr-20 23:59N 53°44' W 000°21'0 0.0
2019-Apr-20 23:29N 53°44' W 000°21'0 0.0
2019-Apr-20 22:59N 53°44' W 000°21'0 0.0
2019-Apr-20 22:29N 53°44' W 000°21'0 0.0
2019-Apr-20 21:59N 53°44' W 000°21'0 0.0
2019-Apr-20 21:29N 53°44' W 000°21'0 0.0
2019-Apr-20 20:59N 53°44' W 000°21'0 0.0
2019-Apr-20 20:29N 53°44' W 000°21'0 0.0
2019-Apr-20 19:59N 53°44' W 000°21'0 0.0
2019-Apr-20 19:29N 53°44' W 000°21'0 0.0
2019-Apr-20 18:59N 53°44' W 000°21'0 0.0
2019-Apr-20 18:29N 53°44' W 000°21'0 0.0
2019-Apr-20 17:59N 53°44' W 000°21'0 0.0
2019-Apr-20 17:29N 53°44' W 000°21'0 0.0
2019-Apr-20 16:59N 53°44' W 000°21'0 0.0
2019-Apr-20 16:29N 53°44' W 000°21'0 0.0
2019-Apr-20 15:59N 53°44' W 000°21'0 0.0
2019-Apr-20 15:29N 53°44' W 000°21'0 0.0
2019-Apr-20 14:59N 53°44' W 000°21'0 0.0
2019-Apr-20 14:29N 53°44' W 000°21'0 0.0
2019-Apr-20 13:59N 53°44' W 000°21'0 0.0
2019-Apr-20 13:29N 53°44' W 000°21'0 0.0
2019-Apr-20 12:59N 53°44' W 000°21'0 0.0
2019-Apr-20 12:29N 53°44' W 000°21'0 0.0
2019-Apr-20 11:59N 53°44' W 000°21'0 0.0
2019-Apr-20 11:29N 53°44' W 000°21'0 0.0
2019-Apr-20 10:59N 53°44' W 000°21'0 0.0
2019-Apr-20 10:29N 53°44' W 000°21'0 0.0
2019-Apr-20 09:59N 53°44' W 000°21'0 0.3
2019-Apr-20 09:29N 53°44' W 000°21'0 0.0
2019-Apr-20 08:59N 53°44' W 000°21'0 0.0
2019-Apr-20 08:29N 53°44' W 000°21'0 0.0
2019-Apr-20 07:59N 53°44' W 000°21'0 0.0
2019-Apr-20 07:29N 53°44' W 000°21'0 0.0
2019-Apr-20 06:59N 53°44' W 000°21'0 0.0
2019-Apr-20 06:29N 53°44' W 000°21'0 0.0
2019-Apr-20 05:56N 53°44' W 000°21'0 0.0
2019-Apr-20 05:29N 53°44' W 000°21'0 0.0
2019-Apr-20 04:58N 53°44' W 000°21'0 0.0
2019-Apr-20 04:29N 53°44' W 000°21'0 0.0
2019-Apr-20 03:59N 53°44' W 000°21'0 0.0
2019-Apr-20 03:29N 53°44' W 000°21'0 0.0
2019-Apr-20 02:58N 53°44' W 000°21'0 0.0
2019-Apr-20 02:29N 53°44' W 000°21'0 0.0
2019-Apr-20 01:59N 53°44' W 000°21'0 0.0
2019-Apr-20 01:29N 53°44' W 000°21'0 0.0
2019-Apr-20 00:59N 53°44' W 000°21'0 0.0
2019-Apr-20 00:29N 53°44' W 000°21'0 0.0
2019-Apr-19 23:59N 53°44' W 000°21'0 0.0
2019-Apr-19 23:29N 53°44' W 000°21'0 0.0
2019-Apr-19 22:59N 53°44' W 000°21'0 0.0
2019-Apr-19 22:29N 53°44' W 000°21'0 0.0
2019-Apr-19 21:59N 53°44' W 000°21'0 0.0
2019-Apr-19 21:29N 53°44' W 000°21'0 0.0
2019-Apr-19 20:58N 53°44' W 000°21'0 0.0
2019-Apr-19 20:29N 53°44' W 000°21'0 0.0
2019-Apr-19 19:59N 53°44' W 000°21'0 0.0
2019-Apr-19 19:26N 53°44' W 000°21'0 0.0
2019-Apr-19 18:58N 53°44' W 000°21'0 0.0
2019-Apr-19 18:29N 53°44' W 000°21'0 0.0
2019-Apr-19 17:59N 53°44' W 000°21'0 0.0
2019-Apr-19 17:28N 53°44' W 000°21'0 0.0
2019-Apr-19 16:59N 53°44' W 000°21'0 0.0
2019-Apr-19 16:29N 53°44' W 000°21'0 0.0
2019-Apr-19 15:58N 53°44' W 000°21'0 0.0
2019-Apr-19 15:29N 53°44' W 000°21'0 0.0
2019-Apr-19 14:59N 53°44' W 000°21'0 0.0
2019-Apr-19 14:28N 53°44' W 000°21'0 0.0
2019-Apr-19 13:58N 53°44' W 000°21'0 0.0
2019-Apr-19 13:28N 53°44' W 000°21'0 0.0
2019-Apr-19 12:59N 53°44' W 000°21'0 0.0
2019-Apr-19 12:28N 53°44' W 000°21'0 0.0
2019-Apr-19 11:59N 53°44' W 000°21'0 0.0
2019-Apr-19 11:28N 53°44' W 000°21'0 0.0
2019-Apr-19 10:58N 53°44' W 000°21'0 0.0
2019-Apr-19 10:28N 53°44' W 000°21'0 0.0
2019-Apr-19 09:58N 53°44' W 000°21'0 0.0
2019-Apr-19 09:28N 53°44' W 000°21'0 0.0
2019-Apr-19 08:58N 53°44' W 000°21'0 0.0
2019-Apr-19 08:29N 53°44' W 000°21'0 0.0
2019-Apr-19 07:59N 53°44' W 000°21'0 0.0
2019-Apr-19 07:28N 53°44' W 000°21'0 0.0
2019-Apr-19 06:59N 53°44' W 000°21'0 0.0
2019-Apr-19 06:29N 53°44' W 000°21'0 0.0
2019-Apr-19 05:58N 53°44' W 000°21'0 0.0
2019-Apr-19 05:28N 53°44' W 000°21'0 0.0
2019-Apr-19 04:58N 53°44' W 000°21'0 0.0
2019-Apr-19 04:28N 53°44' W 000°21'0 0.0
2019-Apr-19 03:58N 53°44' W 000°21'0 0.0
2019-Apr-19 03:28N 53°44' W 000°21'0 0.0
2019-Apr-19 02:58N 53°44' W 000°21'0 0.0
2019-Apr-19 02:28N 53°44' W 000°21'0 0.0
2019-Apr-19 01:58N 53°44' W 000°21'0 0.0
2019-Apr-19 01:28N 53°44' W 000°21'0 0.0
2019-Apr-19 00:58N 53°44' W 000°21'0 0.0
2019-Apr-19 00:28N 53°44' W 000°21'0 0.0
2019-Apr-18 23:58N 53°44' W 000°21'0 0.0
2019-Apr-18 23:28N 53°44' W 000°21'0 0.0
2019-Apr-18 22:58N 53°44' W 000°21'0 0.0
2019-Apr-18 22:28N 53°44' W 000°21'0 0.0
2019-Apr-18 21:58N 53°44' W 000°21'0 0.0
2019-Apr-18 21:28N 53°44' W 000°21'0 0.0
2019-Apr-18 20:58N 53°44' W 000°21'0 0.0
2019-Apr-18 20:28N 53°44' W 000°21'0 0.0
2019-Apr-18 19:58N 53°44' W 000°21'0 0.0
2019-Apr-18 19:28N 53°44' W 000°21'0 0.0
2019-Apr-18 18:55N 53°44' W 000°21'0 0.0
2019-Apr-18 18:28N 53°44' W 000°21'0 0.0
2019-Apr-18 17:58N 53°44' W 000°21'0 0.0
2019-Apr-18 17:28N 53°44' W 000°21'0 0.0
2019-Apr-18 16:55N 53°44' W 000°21'0 0.0
2019-Apr-18 16:28N 53°44' W 000°21'0 0.0
2019-Apr-18 15:58N 53°44' W 000°21'0 0.0
2019-Apr-18 15:28N 53°44' W 000°21'0 0.0
2019-Apr-18 14:58N 53°44' W 000°21'0 0.0
2019-Apr-18 14:28N 53°44' W 000°21'0 0.0
2019-Apr-18 13:58N 53°44' W 000°21'0 0.0
2019-Apr-18 13:28N 53°44' W 000°21'0 0.0
2019-Apr-18 12:58N 53°44' W 000°21'0 0.0
2019-Apr-18 12:28N 53°44' W 000°21'0 0.0
2019-Apr-18 11:58N 53°44' W 000°21'0 0.0
2019-Apr-18 11:28N 53°44' W 000°21'0 0.0
2019-Apr-18 10:58N 53°44' W 000°21'0 0.0
2019-Apr-18 10:28N 53°44' W 000°21'0 0.0
2019-Apr-18 09:58N 53°44' W 000°21'0 0.0
2019-Apr-18 09:28N 53°44' W 000°21'0 0.0
2019-Apr-18 08:58N 53°44' W 000°21'0 0.0
2019-Apr-18 08:28N 53°44' W 000°21'0 0.0
2019-Apr-18 07:58N 53°44' W 000°21'0 0.0
2019-Apr-18 07:28N 53°44' W 000°21'0 0.0
2019-Apr-18 06:58N 53°44' W 000°21'0 0.0
2019-Apr-18 06:28N 53°44' W 000°21'0 0.0
2019-Apr-18 05:58N 53°44' W 000°21'0 0.0
2019-Apr-18 05:28N 53°44' W 000°21'0 0.0
2019-Apr-18 04:58N 53°44' W 000°21'0 0.0
2019-Apr-18 04:28N 53°44' W 000°21'0 0.0
2019-Apr-18 03:58N 53°44' W 000°21'0 0.0
2019-Apr-18 03:28N 53°44' W 000°21'0 0.0
2019-Apr-18 02:58N 53°44' W 000°21'0 0.0
2019-Apr-18 02:28N 53°44' W 000°21'0 0.0
2019-Apr-18 01:58N 53°44' W 000°21'0 0.0
2019-Apr-18 01:28N 53°44' W 000°21'0 0.0
2019-Apr-18 00:58N 53°44' W 000°21'0 0.0
2019-Apr-18 00:28N 53°44' W 000°21'0 0.0
2019-Apr-17 23:58N 53°44' W 000°21'0 0.0
2019-Apr-17 23:28N 53°44' W 000°21'0 0.0
2019-Apr-17 22:58N 53°44' W 000°21'0 0.0
2019-Apr-17 22:28N 53°44' W 000°21'0 0.0
2019-Apr-17 21:58N 53°44' W 000°21'0 0.0
2019-Apr-17 21:28N 53°44' W 000°21'0 0.0
2019-Apr-17 20:58N 53°44' W 000°21'0 0.0
2019-Apr-17 20:28N 53°44' W 000°21'0 0.0
2019-Apr-17 19:58N 53°44' W 000°21'0 0.0
2019-Apr-17 19:28N 53°44' W 000°21'0 0.0
2019-Apr-17 18:55N 53°44' W 000°21'0 0.0
2019-Apr-17 18:28N 53°44' W 000°21'0 0.0
2019-Apr-17 17:58N 53°44' W 000°21'0 0.0
2019-Apr-17 17:28N 53°44' W 000°21'0 0.0
2019-Apr-17 16:58N 53°44' W 000°21'0 0.0
2019-Apr-17 16:28N 53°44' W 000°21'0 0.0
2019-Apr-17 15:58N 53°44' W 000°21'0 0.0
2019-Apr-17 15:28N 53°44' W 000°21'0 0.0
2019-Apr-17 14:58N 53°44' W 000°21'0 0.0
2019-Apr-17 14:28N 53°44' W 000°21'0 0.0
2019-Apr-17 13:58N 53°44' W 000°21'0 0.0
2019-Apr-17 13:28N 53°44' W 000°21'0 0.0
2019-Apr-17 12:58N 53°44' W 000°21'0 0.0
2019-Apr-17 12:28N 53°44' W 000°21'0 0.0
2019-Apr-17 11:58N 53°44' W 000°21'0 0.0
2019-Apr-17 11:28N 53°44' W 000°21'0 0.0
2019-Apr-17 10:58N 53°44' W 000°21'0 0.0
2019-Apr-17 10:28N 53°44' W 000°21'0 0.0
2019-Apr-17 09:58N 53°44' W 000°21'0 0.0
2019-Apr-17 09:28N 53°44' W 000°21'0 0.0
2019-Apr-17 08:58N 53°44' W 000°21'0 0.0
2019-Apr-17 08:28N 53°44' W 000°21'0 0.0
2019-Apr-17 07:58N 53°44' W 000°21'0 0.0
2019-Apr-17 07:28N 53°44' W 000°21'0 0.0
2019-Apr-17 06:58N 53°44' W 000°21'0 0.0
2019-Apr-17 06:28N 53°44' W 000°21'0 0.0
2019-Apr-17 05:55N 53°44' W 000°21'0 0.0
2019-Apr-17 05:28N 53°44' W 000°21'0 0.0
2019-Apr-17 04:58N 53°44' W 000°21'0 0.0
2019-Apr-17 04:28N 53°44' W 000°21'0 0.0
2019-Apr-17 03:58N 53°44' W 000°21'0 0.0
2019-Apr-17 03:28N 53°44' W 000°21'0 0.0
2019-Apr-17 02:58N 53°44' W 000°21'0 0.0
2019-Apr-17 02:28N 53°44' W 000°21'0 0.0
2019-Apr-17 01:58N 53°44' W 000°21'0 0.0
2019-Apr-17 01:28N 53°44' W 000°21'0 0.0
2019-Apr-17 00:58N 53°44' W 000°21'0 0.0
2019-Apr-17 00:28N 53°44' W 000°21'0 0.0
2019-Apr-16 23:58N 53°44' W 000°21'0 0.0
2019-Apr-16 23:28N 53°44' W 000°21'0 0.0
2019-Apr-16 22:58N 53°44' W 000°21'0 0.0
2019-Apr-16 22:28N 53°44' W 000°21'0 0.0
2019-Apr-16 21:58N 53°44' W 000°21'0 0.0
2019-Apr-16 21:28N 53°44' W 000°21'0 0.0
2019-Apr-16 20:58N 53°44' W 000°21'0 0.0
2019-Apr-16 20:28N 53°44' W 000°21'0 0.0
2019-Apr-16 19:58N 53°44' W 000°21'0 0.0
2019-Apr-16 19:28N 53°44' W 000°21'0 0.0
2019-Apr-16 18:58N 53°44' W 000°21'0 0.0
2019-Apr-16 18:28N 53°44' W 000°21'0 0.0
2019-Apr-16 17:58N 53°44' W 000°21'0 0.0
2019-Apr-16 17:28N 53°44' W 000°21'0 0.0
2019-Apr-16 16:58N 53°44' W 000°21'0 0.0
2019-Apr-16 16:28N 53°44' W 000°21'0 0.0
2019-Apr-16 15:58N 53°44' W 000°21'0 0.0
2019-Apr-16 15:28N 53°44' W 000°21'0 0.0
2019-Apr-16 14:58N 53°44' W 000°21'0 0.0
2019-Apr-16 14:28N 53°44' W 000°21'0 0.0
2019-Apr-16 13:58N 53°44' W 000°21'0 0.0
2019-Apr-16 13:28N 53°44' W 000°21'0 0.0
2019-Apr-16 12:58N 53°44' W 000°21'0 0.0
2019-Apr-16 12:28N 53°44' W 000°21'0 0.0
2019-Apr-16 11:58N 53°44' W 000°21'0 0.0
2019-Apr-16 11:28N 53°44' W 000°21'0 0.0
2019-Apr-16 10:58N 53°44' W 000°21'0 0.0
2019-Apr-16 10:28N 53°44' W 000°21'0 0.0
2019-Apr-16 09:55N 53°44' W 000°21'0 0.0
2019-Apr-16 09:28N 53°44' W 000°21'0 0.0
2019-Apr-16 08:58N 53°44' W 000°21'0 0.0
2019-Apr-16 08:28N 53°44' W 000°21'0 0.0
2019-Apr-16 07:58N 53°44' W 000°21'0 0.0
2019-Apr-16 07:28N 53°44' W 000°21'0 0.0
2019-Apr-16 06:58N 53°44' W 000°21'0 0.0
2019-Apr-16 06:28N 53°44' W 000°21'0 0.0
2019-Apr-16 05:58N 53°44' W 000°21'0 0.0
2019-Apr-16 05:28N 53°44' W 000°21'0 0.0
2019-Apr-16 04:58N 53°44' W 000°21'0 0.0
2019-Apr-16 04:28N 53°44' W 000°21'0 0.0
2019-Apr-16 03:58N 53°44' W 000°21'0 0.0
2019-Apr-16 03:28N 53°44' W 000°21'0 0.0
2019-Apr-16 02:58N 53°44' W 000°21'0 0.0
2019-Apr-16 02:28N 53°44' W 000°21'0 0.0
2019-Apr-16 01:58N 53°44' W 000°21'0 0.0
2019-Apr-16 01:28N 53°44' W 000°21'0 0.0
2019-Apr-16 00:58N 53°44' W 000°21'0 0.0
2019-Apr-16 00:28N 53°44' W 000°21'0 0.0
2019-Apr-15 23:58N 53°44' W 000°21'0 0.0
2019-Apr-15 23:28N 53°44' W 000°21'0 0.0
2019-Apr-15 22:55N 53°44' W 000°21'0 0.0
2019-Apr-15 22:28N 53°44' W 000°21'0 0.0
2019-Apr-15 21:58N 53°44' W 000°21'0 0.0
2019-Apr-15 21:28N 53°44' W 000°21'0 0.0
2019-Apr-15 20:55N 53°44' W 000°21'0 0.0
2019-Apr-15 20:28N 53°44' W 000°21'0 0.0
2019-Apr-15 19:58N 53°44' W 000°21'0 0.0
2019-Apr-15 19:28N 53°44' W 000°21'0 0.0
2019-Apr-15 18:58N 53°44' W 000°21'0 0.0
2019-Apr-15 18:28N 53°44' W 000°21'0 0.0
2019-Apr-15 17:58N 53°44' W 000°21'0 0.0
2019-Apr-15 17:28N 53°44' W 000°21'0 0.0
2019-Apr-15 16:58N 53°44' W 000°21'0 0.0
2019-Apr-15 16:28N 53°44' W 000°21'0 0.0
2019-Apr-15 15:58N 53°44' W 000°21'0 0.0
2019-Apr-15 15:28N 53°44' W 000°21'0 0.0
2019-Apr-15 14:58N 53°44' W 000°21'0 0.0
2019-Apr-15 14:28N 53°44' W 000°21'0 0.0
2019-Apr-15 13:58N 53°44' W 000°21'0 0.0
2019-Apr-15 13:28N 53°44' W 000°21'0 0.0
2019-Apr-15 12:58N 53°44' W 000°21'0 0.0
2019-Apr-15 12:28N 53°44' W 000°21'0 0.0
2019-Apr-15 11:58N 53°44' W 000°21'0 0.0
2019-Apr-15 11:28N 53°44' W 000°21'0 0.0
2019-Apr-15 10:58N 53°44' W 000°21'0 0.0
2019-Apr-15 10:28N 53°44' W 000°21'0 0.0
2019-Apr-15 09:58N 53°44' W 000°21'0 0.0
2019-Apr-15 09:28N 53°44' W 000°21'0 0.0
2019-Apr-15 08:58N 53°44' W 000°21'0 0.0
2019-Apr-15 08:28N 53°44' W 000°21'0 0.0
2019-Apr-15 07:58N 53°44' W 000°21'0 0.0
2019-Apr-15 07:28N 53°44' W 000°21'0 0.0
2019-Apr-15 06:58N 53°44' W 000°21'0 0.0
2019-Apr-15 06:25N 53°44' W 000°21'0 0.0
2019-Apr-15 05:58N 53°44' W 000°21'  

Dump ship's entire track history